createdAt,value
2018-09-10T00:00:12.276Z,27.37
2018-09-10T00:00:45.806Z,22.50
2018-09-10T00:01:19.296Z,24.37
2018-09-10T00:01:52.793Z,20.10
2018-09-10T00:02:26.292Z,23.32
2018-09-10T00:02:59.837Z,18.62
2018-09-10T00:03:33.467Z,25.80
2018-09-10T00:04:07.022Z,18.52
2018-09-10T00:04:40.549Z,24.98
2018-09-10T00:05:14.060Z,20.35
2018-09-10T00:05:47.576Z,27.65
2018-09-10T00:06:21.257Z,17.62
2018-09-10T00:06:54.812Z,25.10
2018-09-10T00:07:28.327Z,26.12
2018-09-10T00:08:01.923Z,23.38
2018-09-10T00:08:35.473Z,21.68
2018-09-10T00:09:09.088Z,20.10
2018-09-10T00:09:42.613Z,22.22
2018-09-10T00:10:16.189Z,24.25
2018-09-10T00:10:49.713Z,18.25
2018-09-10T00:11:23.212Z,21.57
2018-09-10T00:11:56.737Z,19.17
2018-09-10T00:12:30.224Z,21.30
2018-09-10T00:13:03.741Z,25.60
2018-09-10T00:13:37.247Z,22.73
2018-09-10T00:14:10.780Z,24.72
2018-09-10T00:14:44.321Z,21.27
2018-09-10T00:15:17.869Z,21.85
2018-09-10T00:15:51.395Z,21.87
2018-09-10T00:16:24.883Z,18.80
2018-09-10T00:16:58.403Z,25.82
2018-09-10T00:17:31.926Z,19.87
2018-09-10T00:18:05.504Z,23.18
2018-09-10T00:18:39.035Z,26.77
2018-09-10T00:19:12.573Z,24.40
2018-09-10T00:19:46.139Z,22.45
2018-09-10T00:20:19.681Z,24.50
2018-09-10T00:20:53.185Z,26.12
2018-09-10T00:21:26.995Z,27.75
2018-09-10T00:22:00.550Z,23.47
2018-09-10T00:22:34.089Z,21.07
2018-09-10T00:23:07.615Z,22.82
2018-09-10T00:23:41.096Z,20.05
2018-09-10T00:24:14.611Z,21.45
2018-09-10T00:24:48.138Z,20.80
2018-09-10T00:25:21.627Z,21.95
2018-09-10T00:25:55.144Z,22.02
2018-09-10T00:26:28.660Z,22.25
2018-09-10T00:27:02.203Z,21.33
2018-09-10T00:27:36.249Z,25.65
2018-09-10T00:28:09.755Z,24.67
2018-09-10T00:28:43.285Z,22.37
2018-09-10T00:29:16.767Z,21.02
2018-09-10T00:29:50.599Z,31.27
2018-09-10T00:30:24.189Z,18.32
2018-09-10T00:30:57.728Z,26.50
2018-09-10T00:31:31.247Z,23.05
2018-09-10T00:32:04.808Z,19.62
2018-09-10T00:32:38.315Z,24.32
2018-09-10T00:33:11.841Z,24.15
2018-09-10T00:33:45.371Z,24.92
2018-09-10T00:34:18.937Z,23.52
2018-09-10T00:34:52.441Z,25.23
2018-09-10T00:35:25.995Z,23.67
2018-09-10T00:35:59.509Z,24.85
2018-09-10T00:36:33.023Z,21.02
2018-09-10T00:37:06.552Z,26.33
2018-09-10T00:37:40.063Z,22.37
2018-09-10T00:38:13.609Z,22.40
2018-09-10T00:38:47.135Z,22.22
2018-09-10T00:39:20.658Z,24.92
2018-09-10T00:39:54.183Z,22.58
2018-09-10T00:40:27.705Z,22.70
2018-09-10T00:41:01.313Z,20.17
2018-09-10T00:41:34.871Z,19.95
2018-09-10T00:42:08.386Z,22.87
2018-09-10T00:42:41.927Z,21.27
2018-09-10T00:43:15.445Z,24.45
2018-09-10T00:43:48.983Z,20.80
2018-09-10T00:44:22.503Z,27.65
2018-09-10T00:44:56.047Z,21.57
2018-09-10T00:45:29.585Z,21.75
2018-09-10T00:46:03.097Z,19.95
2018-09-10T00:46:36.885Z,19.35
2018-09-10T00:47:10.423Z,22.32
2018-09-10T00:47:44.060Z,25.77
2018-09-10T00:48:17.567Z,18.50
2018-09-10T00:48:51.097Z,21.48
2018-09-10T00:49:24.588Z,20.48
2018-09-10T00:49:58.355Z,20.02
2018-09-10T00:50:31.871Z,17.95
2018-09-10T00:51:05.408Z,17.62
2018-09-10T00:51:38.932Z,18.57
2018-09-10T00:52:12.473Z,21.82
2018-09-10T00:52:46.020Z,16.80
2018-09-10T00:53:19.534Z,19.48
2018-09-10T00:53:53.073Z,19.00
2018-09-10T00:54:26.597Z,13.43
2018-09-10T00:55:00.075Z,15.50
2018-09-10T00:55:33.624Z,16.95
2018-09-10T00:56:07.142Z,15.48
2018-09-10T00:56:40.647Z,16.42
2018-09-10T00:57:14.449Z,15.85
2018-09-10T00:57:47.981Z,13.62
2018-09-10T00:58:21.528Z,12.78
2018-09-10T00:58:55.279Z,17.15
2018-09-10T00:59:28.817Z,16.73
2018-09-10T01:00:02.376Z,15.00
2018-09-10T01:00:35.967Z,13.75
2018-09-10T01:01:09.477Z,10.98
2018-09-10T01:01:42.971Z,15.20
2018-09-10T01:02:16.522Z,13.38
2018-09-10T01:02:50.020Z,14.03
2018-09-10T01:03:23.533Z,9.98
2018-09-10T01:03:57.034Z,10.08
2018-09-10T01:04:30.569Z,13.85
2018-09-10T01:05:04.225Z,10.95
2018-09-10T01:05:37.783Z,12.88
2018-09-10T01:06:11.322Z,10.13
2018-09-10T01:06:44.839Z,12.63
2018-09-10T01:07:18.393Z,9.30
2018-09-10T01:07:51.921Z,13.10
2018-09-10T01:08:25.458Z,10.40
2018-09-10T01:08:58.996Z,12.93
2018-09-10T01:09:32.536Z,10.98
2018-09-10T01:10:06.058Z,10.35
2018-09-10T01:10:39.566Z,8.17
2018-09-10T01:11:13.112Z,10.00
2018-09-10T01:11:46.628Z,10.15
2018-09-10T01:12:20.163Z,8.90
2018-09-10T01:12:53.672Z,11.40
2018-09-10T01:13:27.256Z,9.65
2018-09-10T01:14:00.823Z,9.43
2018-09-10T01:14:34.366Z,9.85
2018-09-10T01:15:07.935Z,12.07
2018-09-10T01:15:41.463Z,8.48
2018-09-10T01:16:14.980Z,9.85
2018-09-10T01:16:48.497Z,8.85
2018-09-10T01:17:21.998Z,8.53
2018-09-10T01:17:55.518Z,9.10
2018-09-10T01:18:29.065Z,9.65
2018-09-10T01:19:02.607Z,12.35
2018-09-10T01:19:36.161Z,9.45
2018-09-10T01:20:09.741Z,7.17
2018-09-10T01:20:43.233Z,9.00
2018-09-10T01:21:16.728Z,8.18
2018-09-10T01:21:50.353Z,9.10
2018-09-10T01:22:24.134Z,10.68
2018-09-10T01:22:57.679Z,8.23
2018-09-10T01:23:31.771Z,9.23
2018-09-10T01:24:05.329Z,8.93
2018-09-10T01:24:38.841Z,10.10
2018-09-10T01:25:12.393Z,12.45
2018-09-10T01:25:45.913Z,9.23
2018-09-10T01:26:19.472Z,7.72
2018-09-10T01:26:52.975Z,10.43
2018-09-10T01:27:26.479Z,10.35
2018-09-10T01:28:00.062Z,10.70
2018-09-10T01:28:33.807Z,9.20
2018-09-10T01:29:07.364Z,7.00
2018-09-10T01:29:40.871Z,11.75
2018-09-10T01:30:14.440Z,9.25
2018-09-10T01:30:48.047Z,9.08
2018-09-10T01:31:21.601Z,7.95
2018-09-10T01:31:55.173Z,7.95
2018-09-10T01:32:28.694Z,6.65
2018-09-10T01:33:02.180Z,10.00
2018-09-10T01:33:41.455Z,7.07
2018-09-10T01:34:20.739Z,10.00
2018-09-10T01:35:00.064Z,8.70
2018-09-10T01:35:33.577Z,9.00
2018-09-10T01:36:07.122Z,7.78
2018-09-10T01:36:40.641Z,10.28
2018-09-10T01:37:14.144Z,10.48
2018-09-10T01:37:47.670Z,7.28
2018-09-10T01:38:21.184Z,8.45
2018-09-10T01:38:54.679Z,6.45
2018-09-10T01:39:28.218Z,8.68
2018-09-10T01:40:02.139Z,8.28
2018-09-10T01:40:35.617Z,8.13
2018-09-10T01:41:09.156Z,8.75
2018-09-10T01:41:42.694Z,6.47
2018-09-10T01:42:16.255Z,9.00
2018-09-10T01:42:49.787Z,6.45
2018-09-10T01:43:23.320Z,10.75
2018-09-10T01:43:56.830Z,8.10
2018-09-10T01:44:30.393Z,10.35
2018-09-10T01:45:04.010Z,6.42
2018-09-10T01:45:37.516Z,7.60
2018-09-10T01:46:11.032Z,6.42
2018-09-10T01:46:44.540Z,6.25
2018-09-10T01:47:18.108Z,6.22
2018-09-10T01:47:51.642Z,6.45
2018-09-10T01:48:25.150Z,7.72
2018-09-10T01:48:58.662Z,8.83
2018-09-10T01:49:32.193Z,7.83
2018-09-10T01:50:05.746Z,7.75
2018-09-10T01:50:39.260Z,8.50
2018-09-10T01:51:12.832Z,8.15
2018-09-10T01:51:46.376Z,6.20
2018-09-10T01:52:19.902Z,7.05
2018-09-10T01:52:53.429Z,11.40
2018-09-10T01:53:26.963Z,7.62
2018-09-10T01:54:00.482Z,7.42
2018-09-10T01:54:33.999Z,6.63
2018-09-10T01:55:07.542Z,7.62
2018-09-10T01:55:41.176Z,6.42
2018-09-10T01:56:14.729Z,6.12
2018-09-10T01:56:48.238Z,5.90
2018-09-10T01:57:21.759Z,9.45
2018-09-10T01:57:55.292Z,6.20
2018-09-10T01:58:28.814Z,6.45
2018-09-10T01:59:02.336Z,6.67
2018-09-10T01:59:35.883Z,6.58
2018-09-10T02:00:09.458Z,6.22
2018-09-10T02:00:42.981Z,6.33
2018-09-10T02:01:16.510Z,6.20
2018-09-10T02:01:50.098Z,7.95
2018-09-10T02:02:23.626Z,7.85
2018-09-10T02:02:57.146Z,6.50
2018-09-10T02:03:30.718Z,7.30
2018-09-10T02:04:04.218Z,7.67
2018-09-10T02:04:37.767Z,6.12
2018-09-10T02:05:11.294Z,9.05
2018-09-10T02:05:44.896Z,9.25
2018-09-10T02:06:18.952Z,9.60
2018-09-10T02:06:53.186Z,9.90
2018-09-10T02:07:26.700Z,6.67
2018-09-10T02:08:00.286Z,6.35
2018-09-10T02:08:33.814Z,6.75
2018-09-10T02:09:08.794Z,7.72
2018-09-10T02:09:42.356Z,6.10
2018-09-10T02:10:15.912Z,9.08
2018-09-10T02:10:49.443Z,6.73
2018-09-10T02:11:23.014Z,6.92
2018-09-10T02:11:56.529Z,9.05
2018-09-10T02:12:30.048Z,6.70
2018-09-10T02:13:03.578Z,8.10
2018-09-10T02:13:37.108Z,7.03
2018-09-10T02:14:10.715Z,7.28
2018-09-10T02:14:44.244Z,8.60
2018-09-10T02:15:17.832Z,9.40
2018-09-10T02:15:51.950Z,7.55
2018-09-10T02:16:25.492Z,8.25
2018-09-10T02:16:59.024Z,9.33
2018-09-10T02:17:32.576Z,6.62
2018-09-10T02:18:06.254Z,8.78
2018-09-10T02:18:39.840Z,9.98
2018-09-10T02:19:13.414Z,9.15
2018-09-10T02:19:47.033Z,7.97
2018-09-10T02:20:20.579Z,8.60
2018-09-10T02:20:54.088Z,8.55
2018-09-10T02:21:27.611Z,8.98
2018-09-10T02:22:01.125Z,9.55
2018-09-10T02:22:34.653Z,9.10
2018-09-10T02:23:08.135Z,10.58
2018-09-10T02:23:41.725Z,7.92
2018-09-10T02:24:15.248Z,10.13
2018-09-10T02:24:48.844Z,8.20
2018-09-10T02:25:22.353Z,8.40
2018-09-10T02:25:55.910Z,11.53
2018-09-10T02:26:29.430Z,6.45
2018-09-10T02:27:02.977Z,6.87
2018-09-10T02:27:36.497Z,8.08
2018-09-10T02:28:10.046Z,6.40
2018-09-10T02:28:43.609Z,7.70
2018-09-10T02:29:17.231Z,6.62
2018-09-10T02:29:50.758Z,6.70
2018-09-10T02:30:24.285Z,6.20
2018-09-10T02:30:57.792Z,7.85
2018-09-10T02:31:31.317Z,10.88
2018-09-10T02:32:04.835Z,6.62
2018-09-10T02:32:38.356Z,6.40
2018-09-10T02:33:11.910Z,8.75
2018-09-10T02:33:45.470Z,11.83
2018-09-10T02:34:19.015Z,7.60
2018-09-10T02:34:52.553Z,10.20
2018-09-10T02:35:26.057Z,7.50
2018-09-10T02:35:59.637Z,8.57
2018-09-10T02:36:33.188Z,8.80
2018-09-10T02:37:06.725Z,6.35
2018-09-10T02:37:40.265Z,8.88
2018-09-10T02:38:14.049Z,8.03
2018-09-10T02:38:47.566Z,8.43
2018-09-10T02:39:21.113Z,7.10
2018-09-10T02:39:54.630Z,8.20
2018-09-10T02:40:28.155Z,8.70
2018-09-10T02:41:01.707Z,7.53
2018-09-10T02:41:41.382Z,8.48
2018-09-10T02:42:14.918Z,8.35
2018-09-10T02:42:48.439Z,6.60
2018-09-10T02:43:22.007Z,8.90
2018-09-10T02:43:55.541Z,7.05
2018-09-10T02:44:29.087Z,6.17
2018-09-10T02:45:02.661Z,6.67
2018-09-10T02:45:36.197Z,7.22
2018-09-10T02:46:09.709Z,8.50
2018-09-10T02:46:43.346Z,8.50
2018-09-10T02:47:17.023Z,6.58
2018-09-10T02:47:50.634Z,8.88
2018-09-10T02:48:24.168Z,9.33
2018-09-10T02:48:57.657Z,7.87
2018-09-10T02:49:31.164Z,10.32
2018-09-10T02:50:05.261Z,6.67
2018-09-10T02:50:38.805Z,7.08
2018-09-10T02:51:12.315Z,7.17
2018-09-10T02:51:45.851Z,6.67
2018-09-10T02:52:19.373Z,10.60
2018-09-10T02:52:52.935Z,8.93
2018-09-10T02:53:26.451Z,7.58
2018-09-10T02:53:59.933Z,6.42
2018-09-10T02:54:33.463Z,9.28
2018-09-10T02:55:07.048Z,7.72
2018-09-10T02:55:40.604Z,9.28
2018-09-10T02:56:14.140Z,7.87
2018-09-10T02:56:47.690Z,8.15
2018-09-10T02:57:21.225Z,7.75
2018-09-10T02:57:54.727Z,8.10
2018-09-10T02:58:28.249Z,9.63
2018-09-10T02:59:01.815Z,7.12
2018-09-10T02:59:35.315Z,6.45
2018-09-10T03:00:09.377Z,6.75
2018-09-10T03:00:42.971Z,6.17
2018-09-10T03:01:16.475Z,10.53
2018-09-10T03:01:50.021Z,8.00
2018-09-10T03:02:23.549Z,7.23
2018-09-10T03:02:57.057Z,7.67
2018-09-10T03:03:30.545Z,6.08
2018-09-10T03:04:04.093Z,8.83
2018-09-10T03:04:37.611Z,9.18
2018-09-10T03:05:11.105Z,7.28
2018-09-10T03:05:44.599Z,7.33
2018-09-10T03:06:18.109Z,9.45
2018-09-10T03:06:52.464Z,6.78
2018-09-10T03:07:25.955Z,6.70
2018-09-10T03:07:59.441Z,7.50
2018-09-10T03:08:32.986Z,7.87
2018-09-10T03:09:08.621Z,6.62
2018-09-10T03:09:42.146Z,6.45
2018-09-10T03:10:15.733Z,9.33
2018-09-10T03:10:49.245Z,10.03
2018-09-10T03:11:22.893Z,6.97
2018-09-10T03:11:56.443Z,6.58
2018-09-10T03:12:29.977Z,8.48
2018-09-10T03:13:03.843Z,7.72
2018-09-10T03:13:37.329Z,8.20
2018-09-10T03:14:10.821Z,6.30
2018-09-10T03:14:44.367Z,6.50
2018-09-10T03:15:18.081Z,8.83
2018-09-10T03:15:51.626Z,10.35
2018-09-10T03:16:25.129Z,7.70
2018-09-10T03:16:58.631Z,8.20
2018-09-10T03:17:32.165Z,8.90
2018-09-10T03:18:05.619Z,6.83
2018-09-10T03:18:38.995Z,10.32
2018-09-10T03:19:12.527Z,7.20
2018-09-10T03:19:46.021Z,8.00
2018-09-10T03:20:19.635Z,7.45
2018-09-10T03:20:53.166Z,6.72
2018-09-10T03:21:26.705Z,9.03
2018-09-10T03:22:00.220Z,10.60
2018-09-10T03:22:33.740Z,6.80
2018-09-10T03:23:07.278Z,8.73
2018-09-10T03:23:40.777Z,7.22
2018-09-10T03:24:14.532Z,7.70
2018-09-10T03:24:47.867Z,10.85
2018-09-10T03:25:21.383Z,8.75
2018-09-10T03:25:54.903Z,10.63
2018-09-10T03:26:28.438Z,9.30
2018-09-10T03:27:01.955Z,9.80
2018-09-10T03:27:35.571Z,8.10
2018-09-10T03:28:09.079Z,11.18
2018-09-10T03:28:42.601Z,8.38
2018-09-10T03:29:16.102Z,8.00
2018-09-10T03:29:49.637Z,8.40
2018-09-10T03:30:23.191Z,11.28
2018-09-10T03:30:56.813Z,6.55
2018-09-10T03:31:30.273Z,8.08
2018-09-10T03:32:03.817Z,7.45
2018-09-10T03:32:37.649Z,8.30
2018-09-10T03:33:11.190Z,9.40
2018-09-10T03:33:44.780Z,11.57
2018-09-10T03:34:18.219Z,9.10
2018-09-10T03:34:51.763Z,9.78
2018-09-10T03:35:25.277Z,9.68
2018-09-10T03:35:58.806Z,11.30
2018-09-10T03:36:32.297Z,7.33
2018-09-10T03:37:05.827Z,8.08
2018-09-10T03:37:39.341Z,8.03
2018-09-10T03:38:12.871Z,9.45
2018-09-10T03:38:46.596Z,12.78
2018-09-10T03:39:20.115Z,10.25
2018-09-10T03:39:53.629Z,7.30
2018-09-10T03:40:27.173Z,7.60
2018-09-10T03:41:00.665Z,8.70
2018-09-10T03:41:34.175Z,6.87
2018-09-10T03:42:07.763Z,9.73
2018-09-10T03:42:41.295Z,6.53
2018-09-10T03:43:14.857Z,10.28
2018-09-10T03:43:48.401Z,7.87
2018-09-10T03:44:21.893Z,10.63
2018-09-10T03:44:55.380Z,8.40
2018-09-10T03:45:28.915Z,8.30
2018-09-10T03:46:02.424Z,10.75
2018-09-10T03:46:36.091Z,8.73
2018-09-10T03:47:09.628Z,8.50
2018-09-10T03:47:43.156Z,6.58
2018-09-10T03:48:16.659Z,7.50
2018-09-10T03:48:50.201Z,9.53
2018-09-10T03:49:23.683Z,9.85
2018-09-10T03:49:57.201Z,8.48
2018-09-10T03:50:30.711Z,11.18
2018-09-10T03:51:04.227Z,6.72
2018-09-10T03:51:37.750Z,7.75
2018-09-10T03:52:11.284Z,11.90
2018-09-10T03:52:44.795Z,9.33
2018-09-10T03:53:18.319Z,9.53
2018-09-10T03:53:51.885Z,8.15
2018-09-10T03:54:25.445Z,7.58
2018-09-10T03:54:58.963Z,11.68
2018-09-10T03:55:32.489Z,9.30
2018-09-10T03:56:06.005Z,9.33
2018-09-10T03:56:39.512Z,7.58
2018-09-10T03:57:13.055Z,8.95
2018-09-10T03:57:46.599Z,7.83
2018-09-10T03:58:20.139Z,9.55
2018-09-10T03:58:53.683Z,6.83
2018-09-10T03:59:27.170Z,7.55
2018-09-10T04:00:00.699Z,8.70
2018-09-10T04:00:34.233Z,10.38
2018-09-10T04:01:08.141Z,7.92
2018-09-10T04:01:41.703Z,7.65
2018-09-10T04:02:15.241Z,7.60
2018-09-10T04:02:48.795Z,9.43
2018-09-10T04:03:22.375Z,9.65
2018-09-10T04:03:55.894Z,10.72
2018-09-10T04:04:29.445Z,7.03
2018-09-10T04:05:03.002Z,9.55
2018-09-10T04:05:36.540Z,10.18
2018-09-10T04:06:10.055Z,11.05
2018-09-10T04:06:43.669Z,10.60
2018-09-10T04:07:17.177Z,10.55
2018-09-10T04:07:50.727Z,6.75
2018-09-10T04:08:24.234Z,8.08
2018-09-10T04:08:57.741Z,7.27
2018-09-10T04:09:31.248Z,9.40
2018-09-10T04:10:04.884Z,10.10
2018-09-10T04:10:38.473Z,9.75
2018-09-10T04:11:11.975Z,12.37
2018-09-10T04:11:45.489Z,8.05
2018-09-10T04:12:18.987Z,9.88
2018-09-10T04:12:52.536Z,10.65
2018-09-10T04:13:26.067Z,8.95
2018-09-10T04:13:59.589Z,8.83
2018-09-10T04:14:33.086Z,9.80
2018-09-10T04:15:06.599Z,8.23
2018-09-10T04:15:40.154Z,10.58
2018-09-10T04:16:13.667Z,7.37
2018-09-10T04:16:47.207Z,8.95
2018-09-10T04:17:20.767Z,10.82
2018-09-10T04:17:54.267Z,9.35
2018-09-10T04:18:27.807Z,10.53
2018-09-10T04:19:01.357Z,9.73
2018-09-10T04:19:34.916Z,7.42
2018-09-10T04:20:09.639Z,9.33
2018-09-10T04:20:43.183Z,9.28
2018-09-10T04:21:16.753Z,9.13
2018-09-10T04:21:50.341Z,10.40
2018-09-10T04:22:23.841Z,11.00
2018-09-10T04:22:57.331Z,8.20
2018-09-10T04:23:30.827Z,9.55
2018-09-10T04:24:04.381Z,12.05
2018-09-10T04:24:37.909Z,8.40
2018-09-10T04:25:11.452Z,9.05
2018-09-10T04:25:44.963Z,7.97
2018-09-10T04:26:18.470Z,6.47
2018-09-10T04:26:52.008Z,9.53
2018-09-10T04:27:25.526Z,8.95
2018-09-10T04:27:59.034Z,9.33
2018-09-10T04:28:32.548Z,13.08
2018-09-10T04:29:06.084Z,7.50
2018-09-10T04:29:39.605Z,8.35
2018-09-10T04:30:15.019Z,10.72
2018-09-10T04:30:48.559Z,9.30
2018-09-10T04:31:22.155Z,11.53
2018-09-10T04:31:55.683Z,11.75
2018-09-10T04:32:29.242Z,10.15
2018-09-10T04:33:02.790Z,8.60
2018-09-10T04:33:36.296Z,12.45
2018-09-10T04:34:09.777Z,10.03
2018-09-10T04:34:43.258Z,10.60
2018-09-10T04:35:16.771Z,9.20
2018-09-10T04:35:50.302Z,6.80
2018-09-10T04:36:23.936Z,12.78
2018-09-10T04:36:57.440Z,11.60
2018-09-10T04:37:30.945Z,8.35
2018-09-10T04:38:04.465Z,10.72
2018-09-10T04:38:38.098Z,13.60
2018-09-10T04:39:11.944Z,9.28
2018-09-10T04:39:45.447Z,9.38
2018-09-10T04:40:19.018Z,7.45
2018-09-10T04:40:52.544Z,9.20
2018-09-10T04:41:27.037Z,9.10
2018-09-10T04:42:00.649Z,10.80
2018-09-10T04:42:34.186Z,12.17
2018-09-10T04:43:07.696Z,9.90
2018-09-10T04:43:41.209Z,8.95
2018-09-10T04:44:14.716Z,9.00
2018-09-10T04:44:48.207Z,10.35
2018-09-10T04:45:21.750Z,7.53
2018-09-10T04:45:55.288Z,9.13
2018-09-10T04:46:28.804Z,13.18
2018-09-10T04:47:02.340Z,10.00
2018-09-10T04:47:35.882Z,7.33
2018-09-10T04:48:09.464Z,11.80
2018-09-10T04:48:42.972Z,10.93
2018-09-10T04:49:16.484Z,11.45
2018-09-10T04:49:50.091Z,8.48
2018-09-10T04:50:23.554Z,9.60
2018-09-10T04:50:57.092Z,9.43
2018-09-10T04:51:30.814Z,9.83
2018-09-10T04:52:04.341Z,8.28
2018-09-10T04:52:37.838Z,11.43
2018-09-10T04:53:11.354Z,8.15
2018-09-10T04:53:44.866Z,9.48
2018-09-10T04:54:18.396Z,10.48
2018-09-10T04:54:51.928Z,9.25
2018-09-10T04:55:25.482Z,7.10
2018-09-10T04:55:58.998Z,8.93
2018-09-10T04:56:32.476Z,8.83
2018-09-10T04:57:06.031Z,7.17
2018-09-10T04:57:39.628Z,6.90
2018-09-10T04:58:13.227Z,12.70
2018-09-10T04:58:46.715Z,7.70
2018-09-10T04:59:20.323Z,8.87
2018-09-10T04:59:53.818Z,9.55
2018-09-10T05:00:27.311Z,10.05
2018-09-10T05:01:01.243Z,11.15
2018-09-10T05:01:34.780Z,14.23
2018-09-10T05:02:08.296Z,9.75
2018-09-10T05:05:15.797Z,11.00
2018-09-10T05:05:49.312Z,10.68
2018-09-10T05:06:22.818Z,13.13
2018-09-10T05:06:56.394Z,9.93
2018-09-10T05:07:29.880Z,9.53
2018-09-10T05:08:03.433Z,10.10
2018-09-10T05:08:36.958Z,9.83
2018-09-10T05:09:10.489Z,10.63
2018-09-10T05:09:44.025Z,13.98
2018-09-10T05:10:17.517Z,12.63
2018-09-10T05:10:51.036Z,8.68
2018-09-10T05:11:24.581Z,9.38
2018-09-10T05:11:58.098Z,13.50
2018-09-10T05:12:31.596Z,12.55
2018-09-10T05:13:05.137Z,8.13
2018-09-10T05:13:38.716Z,10.08
2018-09-10T05:14:12.250Z,9.68
2018-09-10T05:14:45.790Z,11.55
2018-09-10T05:15:19.825Z,11.03
2018-09-10T05:15:53.360Z,11.55
2018-09-10T05:16:26.888Z,11.50
2018-09-10T05:17:01.706Z,13.10
2018-09-10T05:17:35.212Z,13.00
2018-09-10T05:18:08.702Z,12.50
2018-09-10T05:18:42.574Z,10.60
2018-09-10T05:19:16.046Z,11.57
2018-09-10T05:19:49.596Z,9.93
2018-09-10T05:20:23.104Z,11.05
2018-09-10T05:20:56.572Z,12.55
2018-09-10T05:21:30.086Z,11.53
2018-09-10T05:22:03.877Z,12.43
2018-09-10T05:22:37.352Z,12.50
2018-09-10T05:23:10.906Z,14.93
2018-09-10T05:23:44.452Z,11.70
2018-09-10T05:24:17.973Z,9.35
2018-09-10T05:24:51.494Z,13.08
2018-09-10T05:25:25.206Z,9.18
2018-09-10T05:25:58.710Z,12.58
2018-09-10T05:26:32.236Z,10.82
2018-09-10T05:27:05.755Z,9.63
2018-09-10T05:27:39.318Z,12.10
2018-09-10T05:28:12.889Z,10.80
2018-09-10T05:28:46.388Z,14.53
2018-09-10T05:29:19.944Z,12.30
2018-09-10T05:29:53.471Z,14.07
2018-09-10T05:30:26.994Z,9.33
2018-09-10T05:31:00.528Z,13.93
2018-09-10T05:31:34.055Z,10.23
2018-09-10T05:32:07.670Z,11.12
2018-09-10T05:32:41.191Z,14.10
2018-09-10T05:33:14.778Z,9.73
2018-09-10T05:33:48.288Z,10.93
2018-09-10T05:34:21.821Z,9.10
2018-09-10T05:34:55.356Z,14.55
2018-09-10T05:35:28.908Z,8.08
2018-09-10T05:36:02.446Z,13.83
2018-09-10T05:36:36.075Z,10.95
2018-09-10T05:37:09.608Z,12.37
2018-09-10T05:37:43.182Z,12.73
2018-09-10T05:38:16.688Z,7.90
2018-09-10T05:38:50.232Z,9.33
2018-09-10T05:39:23.745Z,14.47
2018-09-10T05:39:57.308Z,10.05
2018-09-10T05:40:30.827Z,9.75
2018-09-10T05:41:04.405Z,10.03
2018-09-10T05:41:38.043Z,11.68
2018-09-10T05:42:11.513Z,13.97
2018-09-10T05:42:45.017Z,8.75
2018-09-10T05:43:18.547Z,8.55
2018-09-10T05:43:52.091Z,9.55
2018-09-10T05:44:25.649Z,10.85
2018-09-10T05:44:59.150Z,9.20
2018-09-10T05:45:32.752Z,13.32
2018-09-10T05:46:06.246Z,10.85
2018-09-10T05:46:39.793Z,10.70
2018-09-10T05:47:13.294Z,9.88
2018-09-10T05:47:46.809Z,9.38
2018-09-10T05:48:20.336Z,10.90
2018-09-10T05:48:53.859Z,12.55
2018-09-10T05:49:27.377Z,9.73
2018-09-10T05:50:00.901Z,10.53
2018-09-10T05:50:34.446Z,8.93
2018-09-10T05:51:08.012Z,10.98
2018-09-10T05:51:41.773Z,9.10
2018-09-10T05:52:15.299Z,9.45
2018-09-10T05:52:48.829Z,9.18
2018-09-10T05:53:22.389Z,9.65
2018-09-10T05:53:55.875Z,10.93
2018-09-10T05:54:29.375Z,11.50
2018-09-10T05:55:02.957Z,9.53
2018-09-10T05:55:36.563Z,10.55
2018-09-10T05:56:10.023Z,8.78
2018-09-10T05:56:43.559Z,10.78
2018-09-10T05:57:17.087Z,11.22
2018-09-10T05:57:50.647Z,11.73
2018-09-10T05:58:24.184Z,12.35
2018-09-10T05:58:57.721Z,13.45
2018-09-10T05:59:31.219Z,8.95
2018-09-10T06:00:06.612Z,9.63
2018-09-10T06:00:40.150Z,13.13
2018-09-10T06:01:13.669Z,9.33
2018-09-10T06:01:47.227Z,7.47
2018-09-10T06:02:20.777Z,12.75
2018-09-10T06:02:54.551Z,8.65
2018-09-10T06:03:28.083Z,11.28
2018-09-10T06:04:01.609Z,8.08
2018-09-10T06:04:35.111Z,9.78
2018-09-10T06:05:08.631Z,12.73
2018-09-10T06:05:42.180Z,8.05
2018-09-10T06:06:15.687Z,9.20
2018-09-10T06:06:49.171Z,9.73
2018-09-10T06:07:22.666Z,9.88
2018-09-10T06:07:56.155Z,13.85
2018-09-10T06:08:29.649Z,9.95
2018-09-10T06:09:04.288Z,8.20
2018-09-10T06:09:37.807Z,11.20
2018-09-10T06:10:11.331Z,10.50
2018-09-10T06:10:44.852Z,12.85
2018-09-10T06:11:18.400Z,9.90
2018-09-10T06:11:51.951Z,9.88
2018-09-10T06:12:25.521Z,11.75
2018-09-10T06:12:59.040Z,10.95
2018-09-10T06:13:32.570Z,10.10
2018-09-10T06:14:06.096Z,10.93
2018-09-10T06:15:10.887Z,14.15
2018-09-10T06:15:44.420Z,10.50
2018-09-10T06:16:17.944Z,13.28
2018-09-10T06:16:51.535Z,9.80
2018-09-10T06:17:24.999Z,7.10
2018-09-10T06:17:58.542Z,7.20
2018-09-10T06:18:32.181Z,7.87
2018-09-10T06:19:05.756Z,10.93
2018-09-10T06:19:39.268Z,10.00
2018-09-10T06:20:12.753Z,10.75
2018-09-10T06:20:46.283Z,11.40
2018-09-10T06:21:19.801Z,9.08
2018-09-10T06:21:53.322Z,9.68
2018-09-10T06:22:26.841Z,9.58
2018-09-10T06:23:00.341Z,12.60
2018-09-10T06:23:33.965Z,9.48
2018-09-10T06:24:07.495Z,8.08
2018-09-10T06:24:41.018Z,10.80
2018-09-10T06:25:14.597Z,8.78
2018-09-10T06:25:48.112Z,9.93
2018-09-10T06:26:21.662Z,8.38
2018-09-10T06:26:55.200Z,10.65
2018-09-10T06:27:28.746Z,9.53
2018-09-10T06:28:02.273Z,11.12
2018-09-10T06:28:35.827Z,8.55
2018-09-10T06:29:09.335Z,8.33
2018-09-10T06:29:42.891Z,8.85
2018-09-10T06:30:16.463Z,9.75
2018-09-10T06:30:49.945Z,10.58
2018-09-10T06:31:23.504Z,11.25
2018-09-10T06:31:57.032Z,10.75
2018-09-10T06:32:30.606Z,9.85
2018-09-10T06:33:04.124Z,12.55
2018-09-10T06:33:37.640Z,9.83
2018-09-10T06:34:11.253Z,9.35
2018-09-10T06:34:44.703Z,11.08
2018-09-10T06:35:18.224Z,8.05
2018-09-10T06:35:51.737Z,10.50
2018-09-10T06:36:25.808Z,9.50
2018-09-10T06:36:59.401Z,12.10
2018-09-10T06:37:32.895Z,10.55
2018-09-10T06:38:06.513Z,8.45
2018-09-10T06:38:39.993Z,9.05
2018-09-10T06:39:13.483Z,9.90
2018-09-10T06:39:47.005Z,9.53
2018-09-10T06:40:20.524Z,10.75
2018-09-10T06:40:54.052Z,11.03
2018-09-10T06:41:27.576Z,10.50
2018-09-10T06:42:01.119Z,11.50
2018-09-10T06:42:34.631Z,11.68
2018-09-10T06:43:08.126Z,6.60
2018-09-10T06:43:41.636Z,9.58
2018-09-10T06:44:15.144Z,10.38
2018-09-10T06:44:48.631Z,13.90
2018-09-10T06:45:22.160Z,10.08
2018-09-10T06:45:55.647Z,13.25
2018-09-10T06:46:29.137Z,12.13
2018-09-10T06:47:02.645Z,10.72
2018-09-10T06:47:36.266Z,13.48
2018-09-10T06:48:09.759Z,8.98
2018-09-10T06:48:43.268Z,12.15
2018-09-10T06:49:16.768Z,10.78
2018-09-10T06:49:50.274Z,11.28
2018-09-10T06:50:23.794Z,9.68
2018-09-10T06:50:57.363Z,7.78
2018-09-10T06:51:30.902Z,12.23
2018-09-10T06:52:04.476Z,7.72
2018-09-10T06:52:38.034Z,7.37
2018-09-10T06:53:11.568Z,9.18
2018-09-10T06:53:45.112Z,8.80
2018-09-10T06:54:18.638Z,11.95
2018-09-10T06:54:52.165Z,8.70
2018-09-10T06:55:25.646Z,9.55
2018-09-10T06:55:59.426Z,14.43
2018-09-10T06:56:32.928Z,9.95
2018-09-10T06:57:06.467Z,12.33
2018-09-10T06:57:39.969Z,11.45
2018-09-10T06:58:13.481Z,10.08
2018-09-10T06:58:47.016Z,9.88
2018-09-10T06:59:20.532Z,8.48
2018-09-10T06:59:54.028Z,8.10
2018-09-10T07:00:27.585Z,9.68
2018-09-10T07:01:01.292Z,10.05
2018-09-10T07:01:34.772Z,8.83
2018-09-10T07:02:08.284Z,10.03
2018-09-10T07:02:41.788Z,11.43
2018-09-10T07:03:15.300Z,10.00
2018-09-10T07:03:48.813Z,8.15
2018-09-10T07:04:22.320Z,12.07
2018-09-10T07:04:55.847Z,8.88
2018-09-10T07:05:29.392Z,11.75
2018-09-10T07:06:02.958Z,12.85
2018-09-10T07:06:36.440Z,13.20
2018-09-10T07:07:09.952Z,8.55
2018-09-10T07:07:43.526Z,11.40
2018-09-10T07:08:17.027Z,9.40
2018-09-10T07:08:50.508Z,10.32
2018-09-10T07:09:24.015Z,13.72
2018-09-10T07:09:57.552Z,9.68
2018-09-10T07:10:31.085Z,8.93
2018-09-10T07:11:04.738Z,11.35
2018-09-10T07:11:38.746Z,9.58
2018-09-10T07:12:12.276Z,10.53
2018-09-10T07:12:45.879Z,10.65
2018-09-10T07:13:19.384Z,10.63
2018-09-10T07:13:52.895Z,15.32
2018-09-10T07:14:26.436Z,11.70
2018-09-10T07:14:59.948Z,14.58
2018-09-10T07:15:33.509Z,10.18
2018-09-10T07:16:07.048Z,9.88
2018-09-10T07:16:40.572Z,8.18
2018-09-10T07:17:14.060Z,11.85
2018-09-10T07:17:47.814Z,9.68
2018-09-10T07:18:21.598Z,9.33
2018-09-10T07:18:55.190Z,11.55
2018-09-10T07:19:28.672Z,13.03
2018-09-10T07:20:02.221Z,11.10
2018-09-10T07:20:35.736Z,10.90
2018-09-10T07:21:09.206Z,8.58
2018-09-10T07:21:42.812Z,9.43
2018-09-10T07:22:16.318Z,12.10
2018-09-10T07:22:49.842Z,9.48
2018-09-10T07:23:23.444Z,10.20